N152FJ KPBI-KARR
Flight info
| Callsign | N152FJ |
|---|---|
| Flight time | 2h 54m |
| Altitude | 34000 |
| Route | TBIRD7 SMELZ Q116 JAWJA DCT ESTEE DCT AXC/N0456F370 DCT PNT DCT PLANO DCT |
| Aircraft | FA50/M-SBDE3FGHIM1RWXY/HB1 |
Departure
| Time | 2026-04-20 18:25 |
|---|---|
| Airport | Palm Beach International Airport (KPBI) |
Arrival
| Time | 2026-04-20 21:19 |
|---|---|
| Airport | Aurora Municipal Airport (KARR) |
| Time | Latitude | Longitude | Altitude | Speed | Heading |
|---|---|---|---|---|---|
| 2026-04-20 18:09 | 26.67907 | -80.08221 | 15 ft | 0 kts | 255° |
| 2026-04-20 18:19 | 26.67909 | -80.08226 | 15 ft | 4 kts | 307° |
| 2026-04-20 18:19 | 26.67968 | -80.08249 | 15 ft | 13 kts | 328° |
| 2026-04-20 18:19 | 26.67985 | -80.08344 | 15 ft | 15 kts | 267° |
| 2026-04-20 18:19 | 26.68034 | -80.08442 | 17 ft | 15 kts | 321° |
| 2026-04-20 18:20 | 26.68103 | -80.08519 | 15 ft | 13 kts | 294° |
| 2026-04-20 18:20 | 26.68116 | -80.08633 | 15 ft | 16 kts | 272° |
| 2026-04-20 18:20 | 26.68122 | -80.08767 | 15 ft | 17 kts | 271° |
| 2026-04-20 18:20 | 26.68128 | -80.08903 | 15 ft | 19 kts | 273° |
| 2026-04-20 18:21 | 26.68136 | -80.09069 | 15 ft | 24 kts | 272° |
| 2026-04-20 18:21 | 26.68143 | -80.09269 | 15 ft | 28 kts | 273° |
| 2026-04-20 18:21 | 26.68153 | -80.09499 | 15 ft | 30 kts | 273° |
| 2026-04-20 18:21 | 26.68162 | -80.09715 | 15 ft | 26 kts | 272° |
| 2026-04-20 18:22 | 26.68172 | -80.09908 | 15 ft | 24 kts | 274° |
| 2026-04-20 18:22 | 26.68179 | -80.10088 | 15 ft | 22 kts | 273° |
| 2026-04-20 18:22 | 26.68186 | -80.10255 | 15 ft | 22 kts | 272° |
| 2026-04-20 18:22 | 26.68194 | -80.10435 | 15 ft | 25 kts | 273° |
| 2026-04-20 18:23 | 26.68202 | -80.10625 | 15 ft | 23 kts | 272° |
| 2026-04-20 18:23 | 26.68210 | -80.10793 | 15 ft | 18 kts | 274° |
| 2026-04-20 18:23 | 26.68285 | -80.10831 | 15 ft | 12 kts | 7° |
| 2026-04-20 18:23 | 26.68318 | -80.10772 | 15 ft | 11 kts | 91° |
| 2026-04-20 18:24 | 26.68308 | -80.10560 | 15 ft | 54 kts | 93° |
| 2026-04-20 18:24 | 26.68281 | -80.09935 | 15 ft | 105 kts | 92° |
| 2026-04-20 18:24 | 26.68246 | -80.08997 | 122 ft | 129 kts | 87° |
| 2026-04-20 18:24 | 26.68219 | -80.07930 | 460 ft | 150 kts | 85° |
| 2026-04-20 18:25 | 26.68200 | -80.06651 | 810 ft | 184 kts | 86° |
| 2026-04-20 18:25 | 26.68513 | -80.05184 | 1504 ft | 204 kts | 64° |
| 2026-04-20 18:25 | 26.69065 | -80.03650 | 2553 ft | 215 kts | 65° |
| 2026-04-20 18:25 | 26.69626 | -80.02099 | 3742 ft | 218 kts | 65° |
| 2026-04-20 18:26 | 26.70211 | -80.00500 | 4586 ft | 225 kts | 64° |
| 2026-04-20 18:26 | 26.70845 | -79.98824 | 4934 ft | 252 kts | 63° |
| 2026-04-20 18:26 | 26.71587 | -79.96937 | 5368 ft | 268 kts | 64° |
| 2026-04-20 18:26 | 26.72346 | -79.95039 | 6312 ft | 269 kts | 63° |
| 2026-04-20 18:27 | 26.73130 | -79.93108 | 7014 ft | 276 kts | 63° |
| 2026-04-20 18:27 | 26.73940 | -79.91133 | 7729 ft | 283 kts | 63° |
| 2026-04-20 18:27 | 26.74777 | -79.89110 | 8395 ft | 290 kts | 63° |
| 2026-04-20 18:27 | 26.75639 | -79.87042 | 9111 ft | 296 kts | 64° |
| 2026-04-20 18:28 | 26.76519 | -79.84940 | 9817 ft | 303 kts | 63° |
| 2026-04-20 18:28 | 26.77415 | -79.82808 | 10387 ft | 309 kts | 64° |
| 2026-04-20 18:28 | 26.78330 | -79.80634 | 11117 ft | 309 kts | 63° |
| 2026-04-20 18:28 | 26.79255 | -79.78432 | 11769 ft | 316 kts | 63° |
| 2026-04-20 18:29 | 26.80194 | -79.76198 | 12511 ft | 318 kts | 63° |
| 2026-04-20 18:29 | 26.81147 | -79.73944 | 13137 ft | 323 kts | 63° |
| 2026-04-20 18:29 | 26.82118 | -79.71657 | 13757 ft | 327 kts | 63° |
| 2026-04-20 18:29 | 26.83411 | -79.69598 | 14333 ft | 324 kts | 38° |
| 2026-04-20 18:30 | 26.85286 | -79.68193 | 14763 ft | 328 kts | 24° |
| 2026-04-20 18:30 | 26.87475 | -79.67364 | 15035 ft | 334 kts | 6° |
| 2026-04-20 18:30 | 26.89769 | -79.67218 | 15674 ft | 328 kts | 350° |
| 2026-04-20 18:30 | 26.91974 | -79.67759 | 16224 ft | 323 kts | 334° |
| 2026-04-20 18:31 | 26.93940 | -79.68929 | 16766 ft | 319 kts | 319° |
| 2026-04-20 18:31 | 26.95539 | -79.70617 | 17346 ft | 315 kts | 305° |
| 2026-04-20 18:31 | 26.96678 | -79.72689 | 17925 ft | 312 kts | 291° |
| 2026-04-20 18:31 | 26.97377 | -79.74978 | 18513 ft | 311 kts | 282° |
| 2026-04-20 18:32 | 26.97864 | -79.77341 | 19017 ft | 311 kts | 281° |
| 2026-04-20 18:32 | 26.98379 | -79.79708 | 19509 ft | 313 kts | 284° |
| 2026-04-20 18:32 | 26.99014 | -79.82047 | 19999 ft | 315 kts | 286° |
| 2026-04-20 18:32 | 26.99662 | -79.84399 | 20493 ft | 316 kts | 285° |
| 2026-04-20 18:33 | 27.00265 | -79.86773 | 20967 ft | 317 kts | 284° |
| 2026-04-20 18:33 | 27.00864 | -79.89162 | 21440 ft | 319 kts | 285° |
| 2026-04-20 18:33 | 27.01484 | -79.91559 | 21915 ft | 321 kts | 285° |
| 2026-04-20 18:33 | 27.02109 | -79.93966 | 22375 ft | 322 kts | 285° |
| 2026-04-20 18:34 | 27.02730 | -79.96384 | 22825 ft | 324 kts | 285° |
| 2026-04-20 18:34 | 27.03354 | -79.98821 | 23253 ft | 325 kts | 285° |
| 2026-04-20 18:34 | 27.03973 | -80.01233 | 23621 ft | 327 kts | 286° |
| 2026-04-20 18:34 | 27.04605 | -80.03691 | 23964 ft | 329 kts | 286° |
| 2026-04-20 18:35 | 27.05237 | -80.06157 | 24303 ft | 329 kts | 285° |
| 2026-04-20 18:35 | 27.05869 | -80.08627 | 24660 ft | 330 kts | 285° |
| 2026-04-20 18:35 | 27.06505 | -80.11108 | 25007 ft | 331 kts | 285° |
| 2026-04-20 18:35 | 27.07139 | -80.13589 | 25356 ft | 331 kts | 285° |
| 2026-04-20 18:36 | 27.07776 | -80.16081 | 25705 ft | 332 kts | 285° |
| 2026-04-20 18:36 | 27.08414 | -80.18579 | 26003 ft | 334 kts | 285° |
| 2026-04-20 18:36 | 27.09056 | -80.21098 | 26311 ft | 336 kts | 285° |
| 2026-04-20 18:36 | 27.09699 | -80.23620 | 26647 ft | 337 kts | 285° |
| 2026-04-20 18:37 | 27.10343 | -80.26149 | 26973 ft | 337 kts | 284° |
| 2026-04-20 18:37 | 27.10989 | -80.28687 | 27280 ft | 338 kts | 284° |
| 2026-04-20 18:37 | 27.11636 | -80.31231 | 27585 ft | 340 kts | 284° |
| 2026-04-20 18:37 | 27.12286 | -80.33785 | 27896 ft | 340 kts | 284° |
| 2026-04-20 18:38 | 27.12933 | -80.36337 | 28297 ft | 339 kts | 284° |
| 2026-04-20 18:38 | 27.13577 | -80.38871 | 28720 ft | 336 kts | 284° |
| 2026-04-20 18:38 | 27.14206 | -80.41355 | 29131 ft | 334 kts | 284° |
| 2026-04-20 18:38 | 27.14935 | -80.43829 | 29589 ft | 334 kts | 292° |
| 2026-04-20 18:39 | 27.16200 | -80.46031 | 30279 ft | 332 kts | 304° |
| 2026-04-20 18:39 | 27.17899 | -80.47761 | 30679 ft | 340 kts | 317° |
| 2026-04-20 18:39 | 27.19995 | -80.49066 | 30946 ft | 349 kts | 326° |
| 2026-04-20 18:39 | 27.22259 | -80.50091 | 31250 ft | 353 kts | 330° |
| 2026-04-20 18:40 | 27.24572 | -80.51019 | 31565 ft | 351 kts | 329° |
| 2026-04-20 18:40 | 27.26822 | -80.52043 | 31876 ft | 347 kts | 327° |
| 2026-04-20 18:40 | 27.29028 | -80.53120 | 32116 ft | 345 kts | 327° |
| 2026-04-20 18:40 | 27.31247 | -80.54160 | 32295 ft | 346 kts | 327° |
| 2026-04-20 18:41 | 27.33465 | -80.55208 | 32469 ft | 345 kts | 326° |
| 2026-04-20 18:41 | 27.35643 | -80.56324 | 32670 ft | 342 kts | 324° |
| 2026-04-20 18:41 | 27.37800 | -80.57455 | 32878 ft | 342 kts | 325° |
| 2026-04-20 18:41 | 27.39972 | -80.58557 | 33112 ft | 342 kts | 326° |
| 2026-04-20 18:42 | 27.42136 | -80.59641 | 33354 ft | 340 kts | 325° |
| 2026-04-20 18:42 | 27.44291 | -80.60736 | 33564 ft | 339 kts | 325° |
| 2026-04-20 18:42 | 27.46436 | -80.61834 | 33777 ft | 338 kts | 325° |
| 2026-04-20 18:42 | 27.48577 | -80.62924 | 34004 ft | 337 kts | 325° |
| 2026-04-20 18:43 | 27.50716 | -80.64014 | 34153 ft | 338 kts | 324° |
| 2026-04-20 18:43 | 27.52724 | -80.65346 | 34168 ft | 332 kts | 315° |
| 2026-04-20 18:43 | 27.56160 | -80.68804 | 34177 ft | 334 kts | 309° |
| 2026-04-20 18:44 | 27.59712 | -80.72322 | 34177 ft | 345 kts | 311° |
| 2026-04-20 18:44 | 27.63352 | -80.75913 | 34178 ft | 351 kts | 310° |
| 2026-04-20 18:45 | 27.67026 | -80.79565 | 34171 ft | 357 kts | 311° |
| 2026-04-20 18:45 | 27.70784 | -80.83287 | 34173 ft | 362 kts | 311° |
| 2026-04-20 18:46 | 27.74598 | -80.87079 | 34175 ft | 368 kts | 311° |
| 2026-04-20 18:46 | 27.78464 | -80.90922 | 34179 ft | 374 kts | 311° |
| 2026-04-20 18:47 | 27.82394 | -80.94823 | 34174 ft | 379 kts | 312° |
| 2026-04-20 18:47 | 27.86701 | -80.98411 | 34175 ft | 390 kts | 318° |
| 2026-04-20 18:48 | 27.91154 | -81.01915 | 34178 ft | 390 kts | 315° |
| 2026-04-20 18:48 | 27.95579 | -81.05551 | 34178 ft | 396 kts | 317° |
| 2026-04-20 18:49 | 28.00089 | -81.09158 | 34182 ft | 397 kts | 316° |
| 2026-04-20 18:49 | 28.04586 | -81.12821 | 34193 ft | 399 kts | 316° |
| 2026-04-20 18:50 | 28.09067 | -81.16541 | 34212 ft | 396 kts | 311° |
| 2026-04-20 18:50 | 28.10859 | -81.18852 | 34196 ft | 388 kts | 300° |
| 2026-04-20 18:50 | 28.12152 | -81.21511 | 34200 ft | 384 kts | 290° |
| 2026-04-20 18:51 | 28.12907 | -81.24404 | 34216 ft | 383 kts | 279° |
| 2026-04-20 18:51 | 28.13120 | -81.27407 | 34217 ft | 384 kts | 272° |
| 2026-04-20 18:51 | 28.12773 | -81.33468 | 34221 ft | 387 kts | 267° |
| 2026-04-20 18:52 | 28.12428 | -81.39500 | 34208 ft | 387 kts | 270° |
| 2026-04-20 18:52 | 28.12108 | -81.45587 | 34208 ft | 388 kts | 268° |
| 2026-04-20 18:53 | 28.11753 | -81.51694 | 34210 ft | 388 kts | 269° |
| 2026-04-20 18:53 | 28.11417 | -81.57806 | 34223 ft | 389 kts | 269° |
| 2026-04-20 18:54 | 28.11066 | -81.63917 | 34211 ft | 389 kts | 268° |
| 2026-04-20 18:54 | 28.10718 | -81.70027 | 34215 ft | 389 kts | 268° |
| 2026-04-20 18:55 | 28.10364 | -81.76150 | 34217 ft | 390 kts | 268° |
| 2026-04-20 18:55 | 28.10009 | -81.82279 | 34216 ft | 390 kts | 268° |
| 2026-04-20 18:56 | 28.09649 | -81.88420 | 34218 ft | 391 kts | 268° |
| 2026-04-20 18:56 | 28.09347 | -81.93534 | 34210 ft | 392 kts | 268° |
| 2026-04-20 18:57 | 28.08921 | -82.00705 | 34210 ft | 392 kts | 268° |
| 2026-04-20 18:57 | 28.08807 | -82.05861 | 34219 ft | 390 kts | 277° |
| 2026-04-20 18:58 | 28.09763 | -82.09777 | 34223 ft | 393 kts | 291° |
| 2026-04-20 18:58 | 28.10649 | -82.11625 | 34222 ft | 397 kts | 298° |
| 2026-04-20 18:58 | 28.13108 | -82.14748 | 34226 ft | 408 kts | 312° |
| 2026-04-20 18:58 | 28.14601 | -82.16123 | 34265 ft | 412 kts | 315° |
| 2026-04-20 18:59 | 28.19392 | -82.19724 | 34230 ft | 416 kts | 319° |
| 2026-04-20 18:59 | 28.24062 | -82.23531 | 34230 ft | 413 kts | 316° |
| 2026-04-20 19:00 | 28.28781 | -82.27279 | 34225 ft | 414 kts | 318° |
| 2026-04-20 19:00 | 28.33481 | -82.31044 | 34223 ft | 413 kts | 317° |
| 2026-04-20 19:01 | 28.38176 | -82.34809 | 34218 ft | 413 kts | 317° |
| 2026-04-20 19:01 | 28.42872 | -82.38573 | 34219 ft | 413 kts | 317° |
| 2026-04-20 19:02 | 28.47566 | -82.42347 | 34219 ft | 414 kts | 319° |
| 2026-04-20 19:02 | 28.52275 | -82.46129 | 34219 ft | 414 kts | 319° |
| 2026-04-20 19:03 | 28.56945 | -82.49890 | 34219 ft | 415 kts | 319° |
| 2026-04-20 19:03 | 28.61485 | -82.53547 | 34223 ft | 415 kts | 319° |
| 2026-04-20 19:04 | 28.66202 | -82.57352 | 34220 ft | 416 kts | 319° |
| 2026-04-20 19:04 | 28.70928 | -82.61168 | 34225 ft | 416 kts | 319° |
| 2026-04-20 19:05 | 28.75598 | -82.64944 | 34223 ft | 417 kts | 319° |
| 2026-04-20 19:05 | 28.80300 | -82.68749 | 34222 ft | 417 kts | 317° |
| 2026-04-20 19:06 | 28.84798 | -82.72395 | 34236 ft | 416 kts | 317° |
| 2026-04-20 19:06 | 28.89551 | -82.76249 | 34230 ft | 416 kts | 317° |
| 2026-04-20 19:07 | 28.94201 | -82.80026 | 34219 ft | 416 kts | 317° |
| 2026-04-20 19:07 | 28.98874 | -82.83825 | 34217 ft | 415 kts | 317° |
| 2026-04-20 19:08 | 29.05931 | -82.89571 | 34213 ft | 415 kts | 317° |
| 2026-04-20 19:09 | 29.10637 | -82.93408 | 34221 ft | 415 kts | 316° |
| 2026-04-20 19:09 | 29.15345 | -82.97251 | 34221 ft | 415 kts | 316° |
| 2026-04-20 19:10 | 29.20040 | -83.01088 | 34229 ft | 415 kts | 316° |
| 2026-04-20 19:10 | 29.24735 | -83.04929 | 34229 ft | 415 kts | 316° |
| 2026-04-20 19:11 | 29.29424 | -83.08771 | 34229 ft | 415 kts | 316° |
| 2026-04-20 19:11 | 29.34123 | -83.12624 | 34235 ft | 415 kts | 316° |
| 2026-04-20 19:12 | 29.38814 | -83.16475 | 34222 ft | 415 kts | 315° |
| 2026-04-20 19:12 | 29.43503 | -83.20330 | 34230 ft | 414 kts | 315° |
| 2026-04-20 19:13 | 29.48182 | -83.24180 | 34230 ft | 414 kts | 315° |
| 2026-04-20 19:13 | 29.52825 | -83.28005 | 34230 ft | 413 kts | 315° |
| 2026-04-20 19:14 | 29.57489 | -83.31853 | 34239 ft | 413 kts | 315° |
| 2026-04-20 19:14 | 29.62153 | -83.35705 | 34239 ft | 412 kts | 315° |
| 2026-04-20 19:15 | 29.66807 | -83.39553 | 34268 ft | 412 kts | 315° |
| 2026-04-20 19:15 | 29.71468 | -83.43411 | 34249 ft | 412 kts | 315° |
| 2026-04-20 19:16 | 29.76112 | -83.47258 | 34254 ft | 411 kts | 315° |
| 2026-04-20 19:16 | 29.80746 | -83.51103 | 34264 ft | 410 kts | 315° |
| 2026-04-20 19:17 | 29.85375 | -83.54948 | 34269 ft | 410 kts | 315° |
| 2026-04-20 19:17 | 29.89996 | -83.58789 | 34274 ft | 409 kts | 315° |
| 2026-04-20 19:18 | 29.94615 | -83.62631 | 34282 ft | 409 kts | 315° |
| 2026-04-20 19:18 | 29.99232 | -83.66478 | 34282 ft | 410 kts | 315° |
| 2026-04-20 19:19 | 30.03853 | -83.70330 | 34283 ft | 409 kts | 315° |
| 2026-04-20 19:19 | 30.08463 | -83.74180 | 34281 ft | 408 kts | 315° |
| 2026-04-20 19:20 | 30.13034 | -83.78001 | 34278 ft | 408 kts | 315° |
| 2026-04-20 19:20 | 30.17679 | -83.81788 | 34283 ft | 413 kts | 319° |
| 2026-04-20 19:21 | 30.22933 | -83.84734 | 34275 ft | 425 kts | 327° |
| 2026-04-20 19:21 | 30.28314 | -83.87486 | 34281 ft | 419 kts | 322° |
| 2026-04-20 19:22 | 30.33568 | -83.90449 | 34281 ft | 422 kts | 324° |
| 2026-04-20 19:22 | 30.38899 | -83.93270 | 34290 ft | 420 kts | 323° |
| 2026-04-20 19:23 | 30.44179 | -83.96184 | 34289 ft | 421 kts | 324° |
| 2026-04-20 19:23 | 30.49483 | -83.99046 | 34299 ft | 420 kts | 324° |
| 2026-04-20 19:24 | 30.54775 | -84.01941 | 34299 ft | 421 kts | 324° |
| 2026-04-20 19:24 | 30.60021 | -84.04787 | 34862 ft | 407 kts | 324° |
| 2026-04-20 19:24 | 30.62557 | -84.06170 | 35332 ft | 398 kts | 323° |
| 2026-04-20 19:25 | 30.65034 | -84.07530 | 35818 ft | 389 kts | 323° |
| 2026-04-20 19:25 | 30.67455 | -84.08855 | 36306 ft | 381 kts | 323° |
| 2026-04-20 19:25 | 30.69825 | -84.10149 | 36803 ft | 372 kts | 323° |
| 2026-04-20 19:25 | 30.72109 | -84.11397 | 37306 ft | 363 kts | 323° |
| 2026-04-20 19:26 | 30.74365 | -84.12633 | 37828 ft | 354 kts | 323° |
| 2026-04-20 19:26 | 30.76569 | -84.13841 | 38348 ft | 345 kts | 323° |
| 2026-04-20 19:26 | 30.78712 | -84.15016 | 38811 ft | 337 kts | 323° |
| 2026-04-20 19:26 | 30.80799 | -84.16160 | 39171 ft | 330 kts | 323° |
| 2026-04-20 19:27 | 30.82860 | -84.17293 | 39365 ft | 329 kts | 323° |
| 2026-04-20 19:27 | 30.84965 | -84.18464 | 39106 ft | 342 kts | 323° |
| 2026-04-20 19:27 | 30.87155 | -84.19671 | 38813 ft | 354 kts | 323° |
| 2026-04-20 19:27 | 30.89418 | -84.20907 | 38483 ft | 365 kts | 324° |
| 2026-04-20 19:28 | 30.91739 | -84.22178 | 38309 ft | 371 kts | 324° |
| 2026-04-20 19:28 | 30.96448 | -84.24766 | 38313 ft | 376 kts | 324° |
| 2026-04-20 19:29 | 31.01210 | -84.27389 | 38325 ft | 381 kts | 324° |
| 2026-04-20 19:29 | 31.06028 | -84.30043 | 38309 ft | 384 kts | 324° |
| 2026-04-20 19:30 | 31.10870 | -84.32717 | 38303 ft | 387 kts | 324° |
| 2026-04-20 19:30 | 31.15754 | -84.35416 | 38321 ft | 390 kts | 324° |
| 2026-04-20 19:31 | 31.20637 | -84.38117 | 38323 ft | 392 kts | 324° |
| 2026-04-20 19:31 | 31.25581 | -84.40855 | 38325 ft | 394 kts | 324° |
| 2026-04-20 19:32 | 31.30546 | -84.43608 | 38328 ft | 396 kts | 324° |
| 2026-04-20 19:32 | 31.35535 | -84.46378 | 38329 ft | 397 kts | 324° |
| 2026-04-20 19:33 | 31.40540 | -84.49160 | 38384 ft | 399 kts | 324° |
| 2026-04-20 19:33 | 31.45571 | -84.51959 | 38338 ft | 401 kts | 324° |
| 2026-04-20 19:34 | 31.50614 | -84.54769 | 38338 ft | 402 kts | 324° |
| 2026-04-20 19:34 | 31.55673 | -84.57591 | 38340 ft | 403 kts | 324° |
| 2026-04-20 19:35 | 31.60741 | -84.60422 | 38338 ft | 404 kts | 324° |
| 2026-04-20 19:35 | 31.65822 | -84.63263 | 38335 ft | 405 kts | 324° |
| 2026-04-20 19:36 | 31.70908 | -84.66111 | 38331 ft | 406 kts | 324° |
| 2026-04-20 19:36 | 31.76017 | -84.68974 | 38328 ft | 406 kts | 324° |
| 2026-04-20 19:37 | 31.81125 | -84.71840 | 38328 ft | 407 kts | 324° |
| 2026-04-20 19:37 | 31.86245 | -84.74718 | 38327 ft | 408 kts | 324° |
| 2026-04-20 19:38 | 31.91366 | -84.77599 | 38325 ft | 408 kts | 324° |
| 2026-04-20 19:38 | 31.96495 | -84.80488 | 38326 ft | 409 kts | 324° |
| 2026-04-20 19:39 | 32.01635 | -84.83387 | 38336 ft | 410 kts | 324° |
| 2026-04-20 19:39 | 32.06773 | -84.86288 | 38335 ft | 409 kts | 324° |
| 2026-04-20 19:40 | 32.11913 | -84.89195 | 38308 ft | 409 kts | 324° |
| 2026-04-20 19:40 | 32.17049 | -84.92102 | 38306 ft | 410 kts | 324° |
| 2026-04-20 19:41 | 32.22190 | -84.95017 | 38304 ft | 410 kts | 324° |
| 2026-04-20 19:41 | 32.27299 | -84.97917 | 38300 ft | 411 kts | 324° |
| 2026-04-20 19:42 | 32.32445 | -85.00841 | 38297 ft | 410 kts | 324° |
| 2026-04-20 19:42 | 32.37588 | -85.03767 | 38328 ft | 410 kts | 324° |
| 2026-04-20 19:43 | 32.42718 | -85.06690 | 38326 ft | 409 kts | 324° |
| 2026-04-20 19:43 | 32.47851 | -85.09617 | 38329 ft | 409 kts | 324° |
| 2026-04-20 19:44 | 32.52985 | -85.12551 | 38367 ft | 410 kts | 324° |
| 2026-04-20 19:44 | 32.58117 | -85.15485 | 38338 ft | 410 kts | 325° |
| 2026-04-20 19:45 | 32.63245 | -85.18422 | 38336 ft | 409 kts | 325° |
| 2026-04-20 19:45 | 32.68362 | -85.21356 | 38338 ft | 408 kts | 325° |
| 2026-04-20 19:46 | 32.73481 | -85.24294 | 38334 ft | 408 kts | 325° |
| 2026-04-20 19:46 | 32.78587 | -85.27230 | 38337 ft | 407 kts | 325° |
| 2026-04-20 19:47 | 32.82827 | -85.29670 | 38337 ft | 408 kts | 325° |
| 2026-04-20 19:47 | 32.87933 | -85.32611 | 38347 ft | 407 kts | 325° |
| 2026-04-20 19:48 | 32.93856 | -85.36030 | 38341 ft | 407 kts | 325° |
| 2026-04-20 19:48 | 32.98093 | -85.38478 | 38338 ft | 407 kts | 325° |
| 2026-04-20 19:49 | 33.03186 | -85.41423 | 38335 ft | 406 kts | 325° |
| 2026-04-20 19:49 | 33.08267 | -85.44366 | 38351 ft | 406 kts | 325° |
| 2026-04-20 19:50 | 33.13354 | -85.47316 | 38345 ft | 406 kts | 325° |
| 2026-04-20 19:50 | 33.18435 | -85.50266 | 38339 ft | 406 kts | 325° |
| 2026-04-20 19:51 | 33.23505 | -85.53214 | 38339 ft | 405 kts | 325° |
| 2026-04-20 19:51 | 33.28576 | -85.56166 | 38337 ft | 405 kts | 325° |
| 2026-04-20 19:52 | 33.33639 | -85.59118 | 38339 ft | 405 kts | 325° |
| 2026-04-20 19:52 | 33.38699 | -85.62071 | 38347 ft | 405 kts | 325° |
| 2026-04-20 19:53 | 33.43766 | -85.65033 | 38345 ft | 405 kts | 325° |
| 2026-04-20 19:53 | 33.48823 | -85.67992 | 38354 ft | 405 kts | 325° |
| 2026-04-20 19:54 | 33.53884 | -85.70958 | 38353 ft | 404 kts | 325° |
| 2026-04-20 19:54 | 33.58933 | -85.73920 | 38360 ft | 404 kts | 325° |
| 2026-04-20 19:55 | 33.63992 | -85.76893 | 38354 ft | 405 kts | 326° |
| 2026-04-20 19:55 | 33.69017 | -85.79848 | 38360 ft | 404 kts | 326° |
| 2026-04-20 19:56 | 33.74060 | -85.82820 | 38352 ft | 404 kts | 326° |
| 2026-04-20 19:56 | 33.79109 | -85.85797 | 38356 ft | 404 kts | 326° |
| 2026-04-20 19:57 | 33.84141 | -85.88769 | 38362 ft | 403 kts | 326° |
| 2026-04-20 19:57 | 33.89179 | -85.91749 | 38407 ft | 403 kts | 326° |
| 2026-04-20 19:58 | 33.94225 | -85.94737 | 38365 ft | 404 kts | 326° |
| 2026-04-20 19:58 | 33.99274 | -85.97731 | 38366 ft | 404 kts | 326° |
| 2026-04-20 19:59 | 34.04316 | -86.00724 | 38365 ft | 404 kts | 326° |
| 2026-04-20 19:59 | 34.09355 | -86.03721 | 38363 ft | 403 kts | 326° |
| 2026-04-20 20:00 | 34.14352 | -86.06695 | 38348 ft | 403 kts | 326° |
| 2026-04-20 20:00 | 34.19389 | -86.09699 | 38361 ft | 404 kts | 326° |
| 2026-04-20 20:01 | 34.24429 | -86.12706 | 38349 ft | 404 kts | 326° |
| 2026-04-20 20:01 | 34.29464 | -86.15716 | 38346 ft | 404 kts | 326° |
| 2026-04-20 20:02 | 34.34495 | -86.18728 | 38327 ft | 403 kts | 326° |
| 2026-04-20 20:02 | 34.39527 | -86.21743 | 38328 ft | 403 kts | 326° |
| 2026-04-20 20:03 | 34.44554 | -86.24762 | 38342 ft | 404 kts | 327° |
| 2026-04-20 20:03 | 34.49591 | -86.27787 | 38337 ft | 404 kts | 327° |
| 2026-04-20 20:04 | 34.54593 | -86.30798 | 38340 ft | 404 kts | 327° |
| 2026-04-20 20:04 | 34.59627 | -86.33832 | 38336 ft | 404 kts | 327° |
| 2026-04-20 20:05 | 34.64661 | -86.36869 | 38337 ft | 404 kts | 326° |
| 2026-04-20 20:05 | 34.69698 | -86.39913 | 38322 ft | 405 kts | 327° |
| 2026-04-20 20:06 | 34.74741 | -86.42963 | 38332 ft | 405 kts | 327° |
| 2026-04-20 20:06 | 34.79788 | -86.46022 | 38338 ft | 405 kts | 327° |
| 2026-04-20 20:07 | 34.84835 | -86.49084 | 38339 ft | 405 kts | 327° |
| 2026-04-20 20:07 | 34.89878 | -86.52148 | 38340 ft | 405 kts | 327° |
| 2026-04-20 20:08 | 34.94925 | -86.55218 | 38369 ft | 405 kts | 327° |
| 2026-04-20 20:08 | 34.99978 | -86.58297 | 38325 ft | 406 kts | 327° |
| 2026-04-20 20:09 | 35.04994 | -86.61358 | 38328 ft | 406 kts | 327° |
| 2026-04-20 20:09 | 35.10047 | -86.64444 | 38328 ft | 406 kts | 327° |
| 2026-04-20 20:10 | 35.15101 | -86.67538 | 38324 ft | 406 kts | 327° |
| 2026-04-20 20:10 | 35.20150 | -86.70629 | 38319 ft | 406 kts | 327° |
| 2026-04-20 20:11 | 35.25203 | -86.73731 | 38332 ft | 407 kts | 327° |
| 2026-04-20 20:11 | 35.30267 | -86.76841 | 38325 ft | 407 kts | 327° |
| 2026-04-20 20:12 | 35.35332 | -86.79957 | 38319 ft | 408 kts | 327° |
| 2026-04-20 20:12 | 35.40401 | -86.83081 | 38318 ft | 408 kts | 327° |
| 2026-04-20 20:13 | 35.48004 | -86.87773 | 38315 ft | 409 kts | 327° |
| 2026-04-20 20:13 | 35.53080 | -86.90912 | 38317 ft | 409 kts | 327° |
| 2026-04-20 20:14 | 35.58132 | -86.94039 | 38315 ft | 409 kts | 327° |
| 2026-04-20 20:14 | 35.63213 | -86.97191 | 38305 ft | 409 kts | 327° |
| 2026-04-20 20:15 | 35.68301 | -87.00349 | 38302 ft | 410 kts | 327° |
| 2026-04-20 20:15 | 35.73390 | -87.03515 | 38315 ft | 411 kts | 327° |
| 2026-04-20 20:16 | 35.78494 | -87.06693 | 38319 ft | 411 kts | 327° |
| 2026-04-20 20:16 | 35.83595 | -87.09874 | 38322 ft | 411 kts | 327° |
| 2026-04-20 20:17 | 35.88701 | -87.13064 | 38336 ft | 412 kts | 327° |
| 2026-04-20 20:17 | 35.93811 | -87.16258 | 38334 ft | 412 kts | 327° |
| 2026-04-20 20:18 | 35.98925 | -87.19463 | 38337 ft | 412 kts | 327° |
| 2026-04-20 20:18 | 36.04040 | -87.22670 | 38336 ft | 412 kts | 327° |
| 2026-04-20 20:19 | 36.09155 | -87.25884 | 38343 ft | 412 kts | 327° |
| 2026-04-20 20:19 | 36.14271 | -87.29102 | 38342 ft | 412 kts | 327° |
| 2026-04-20 20:20 | 36.19384 | -87.32324 | 38341 ft | 412 kts | 327° |
| 2026-04-20 20:20 | 36.24496 | -87.35550 | 38345 ft | 413 kts | 327° |
| 2026-04-20 20:21 | 36.29609 | -87.38781 | 38339 ft | 413 kts | 327° |
| 2026-04-20 20:21 | 36.34697 | -87.42002 | 38349 ft | 413 kts | 327° |
| 2026-04-20 20:22 | 36.39816 | -87.45245 | 38347 ft | 413 kts | 327° |
| 2026-04-20 20:22 | 36.44940 | -87.48499 | 38353 ft | 414 kts | 327° |
| 2026-04-20 20:23 | 36.50072 | -87.51760 | 38360 ft | 415 kts | 328° |
| 2026-04-20 20:23 | 36.55203 | -87.55027 | 38358 ft | 414 kts | 328° |
| 2026-04-20 20:24 | 36.60330 | -87.58297 | 38355 ft | 414 kts | 328° |
| 2026-04-20 20:24 | 36.65465 | -87.61574 | 38337 ft | 414 kts | 328° |
| 2026-04-20 20:25 | 36.70595 | -87.64857 | 38340 ft | 414 kts | 328° |
| 2026-04-20 20:25 | 36.75726 | -87.68142 | 38337 ft | 415 kts | 328° |
| 2026-04-20 20:26 | 36.80860 | -87.71436 | 38320 ft | 415 kts | 328° |
| 2026-04-20 20:26 | 36.85991 | -87.74732 | 38325 ft | 415 kts | 328° |
| 2026-04-20 20:27 | 36.91121 | -87.78033 | 38326 ft | 415 kts | 328° |
| 2026-04-20 20:27 | 36.96257 | -87.81343 | 38328 ft | 415 kts | 328° |
| 2026-04-20 20:28 | 37.01362 | -87.84636 | 38341 ft | 416 kts | 328° |
| 2026-04-20 20:28 | 37.06504 | -87.87962 | 38341 ft | 416 kts | 328° |
| 2026-04-20 20:29 | 37.11643 | -87.91287 | 38340 ft | 416 kts | 328° |
| 2026-04-20 20:29 | 37.16785 | -87.94622 | 38344 ft | 416 kts | 328° |
| 2026-04-20 20:30 | 37.21928 | -87.97961 | 38384 ft | 416 kts | 328° |
| 2026-04-20 20:30 | 37.27057 | -88.01297 | 38355 ft | 416 kts | 328° |
| 2026-04-20 20:31 | 37.32186 | -88.04638 | 38344 ft | 415 kts | 328° |
| 2026-04-20 20:31 | 37.37300 | -88.07974 | 38342 ft | 414 kts | 328° |
| 2026-04-20 20:32 | 37.42402 | -88.11308 | 38334 ft | 412 kts | 328° |
| 2026-04-20 20:32 | 37.47488 | -88.14636 | 38340 ft | 412 kts | 328° |
| 2026-04-20 20:33 | 37.52567 | -88.17966 | 38345 ft | 412 kts | 328° |
| 2026-04-20 20:33 | 37.57644 | -88.21297 | 38344 ft | 411 kts | 328° |
| 2026-04-20 20:34 | 37.61862 | -88.24071 | 38342 ft | 411 kts | 328° |
| 2026-04-20 20:34 | 37.66936 | -88.27403 | 38345 ft | 411 kts | 329° |
| 2026-04-20 20:35 | 37.73380 | -88.29839 | 38344 ft | 422 kts | 344° |
| 2026-04-20 20:35 | 37.79159 | -88.31187 | 38348 ft | 420 kts | 341° |
| 2026-04-20 20:36 | 37.83927 | -88.32613 | 38347 ft | 421 kts | 342° |
| 2026-04-20 20:36 | 37.89667 | -88.34108 | 38345 ft | 421 kts | 342° |
| 2026-04-20 20:37 | 37.95350 | -88.35691 | 38355 ft | 421 kts | 342° |
| 2026-04-20 20:37 | 38.01083 | -88.37242 | 38350 ft | 422 kts | 342° |
| 2026-04-20 20:38 | 38.06814 | -88.38817 | 38354 ft | 422 kts | 342° |
| 2026-04-20 20:38 | 38.12554 | -88.40387 | 38350 ft | 422 kts | 342° |
| 2026-04-20 20:39 | 38.18287 | -88.41963 | 38379 ft | 422 kts | 342° |
| 2026-04-20 20:39 | 38.24037 | -88.43543 | 38345 ft | 423 kts | 342° |
| 2026-04-20 20:40 | 38.29792 | -88.45129 | 38340 ft | 423 kts | 342° |
| 2026-04-20 20:40 | 38.35543 | -88.46714 | 38340 ft | 423 kts | 342° |
| 2026-04-20 20:41 | 38.41292 | -88.48304 | 38341 ft | 423 kts | 342° |
| 2026-04-20 20:41 | 38.47038 | -88.49894 | 38337 ft | 423 kts | 342° |
| 2026-04-20 20:42 | 38.52792 | -88.51489 | 38330 ft | 423 kts | 342° |
| 2026-04-20 20:42 | 38.58548 | -88.53088 | 38327 ft | 423 kts | 342° |
| 2026-04-20 20:43 | 38.64297 | -88.54686 | 38332 ft | 423 kts | 342° |
| 2026-04-20 20:43 | 38.70058 | -88.56292 | 38353 ft | 424 kts | 343° |
| 2026-04-20 20:44 | 38.75828 | -88.57900 | 38353 ft | 424 kts | 343° |
| 2026-04-20 20:44 | 38.81597 | -88.59514 | 38354 ft | 424 kts | 343° |
| 2026-04-20 20:45 | 38.87361 | -88.61127 | 38351 ft | 424 kts | 343° |
| 2026-04-20 20:45 | 38.93130 | -88.62745 | 38356 ft | 424 kts | 343° |
| 2026-04-20 20:46 | 38.98857 | -88.64355 | 38353 ft | 424 kts | 343° |
| 2026-04-20 20:46 | 39.04626 | -88.65977 | 38348 ft | 424 kts | 343° |
| 2026-04-20 20:47 | 39.10394 | -88.67604 | 38347 ft | 424 kts | 343° |
| 2026-04-20 20:47 | 39.16168 | -88.69233 | 38351 ft | 425 kts | 343° |
| 2026-04-20 20:48 | 39.21943 | -88.70867 | 38350 ft | 425 kts | 343° |
| 2026-04-20 20:48 | 39.27714 | -88.72501 | 38350 ft | 425 kts | 343° |
| 2026-04-20 20:49 | 39.33492 | -88.74140 | 38347 ft | 425 kts | 343° |
| 2026-04-20 20:49 | 39.39267 | -88.75782 | 38347 ft | 425 kts | 343° |
| 2026-04-20 20:50 | 39.45048 | -88.77427 | 38347 ft | 425 kts | 343° |
| 2026-04-20 20:50 | 39.50830 | -88.79078 | 38341 ft | 425 kts | 343° |
| 2026-04-20 20:51 | 39.56611 | -88.80728 | 38340 ft | 425 kts | 343° |
| 2026-04-20 20:51 | 39.62390 | -88.82383 | 38340 ft | 426 kts | 343° |
| 2026-04-20 20:52 | 39.68133 | -88.84028 | 38335 ft | 425 kts | 343° |
| 2026-04-20 20:52 | 39.73961 | -88.85460 | 38305 ft | 431 kts | 352° |
| 2026-04-20 20:53 | 39.80003 | -88.85062 | 38105 ft | 442 kts | 1° |
| 2026-04-20 20:53 | 39.83010 | -88.84559 | 37538 ft | 427 kts | 1° |
| 2026-04-20 20:53 | 39.85904 | -88.84200 | 36995 ft | 409 kts | 358° |
| 2026-04-20 20:54 | 39.88715 | -88.83975 | 36462 ft | 401 kts | 358° |
| 2026-04-20 20:54 | 39.91488 | -88.83700 | 35934 ft | 397 kts | 359° |
| 2026-04-20 20:54 | 39.94214 | -88.83352 | 35417 ft | 392 kts | 360° |
| 2026-04-20 20:54 | 39.96913 | -88.83024 | 34905 ft | 386 kts | 359° |
| 2026-04-20 20:55 | 39.99576 | -88.82743 | 34404 ft | 381 kts | 359° |
| 2026-04-20 20:55 | 40.02196 | -88.82463 | 33865 ft | 375 kts | 359° |
| 2026-04-20 20:55 | 40.04776 | -88.82164 | 33374 ft | 370 kts | 359° |
| 2026-04-20 20:55 | 40.07325 | -88.81869 | 32891 ft | 364 kts | 359° |
| 2026-04-20 20:56 | 40.09837 | -88.81590 | 32416 ft | 360 kts | 358° |
| 2026-04-20 20:56 | 40.12313 | -88.81314 | 31939 ft | 356 kts | 358° |
| 2026-04-20 20:56 | 40.14780 | -88.81035 | 31468 ft | 356 kts | 358° |
| 2026-04-20 20:56 | 40.17244 | -88.80757 | 30997 ft | 356 kts | 358° |
| 2026-04-20 20:57 | 40.19712 | -88.80477 | 30531 ft | 356 kts | 358° |
| 2026-04-20 20:57 | 40.22179 | -88.80198 | 30023 ft | 356 kts | 358° |
| 2026-04-20 20:57 | 40.24644 | -88.79919 | 29546 ft | 355 kts | 358° |
| 2026-04-20 20:57 | 40.27099 | -88.79640 | 29083 ft | 354 kts | 358° |
| 2026-04-20 20:58 | 40.29549 | -88.79362 | 28611 ft | 353 kts | 358° |
| 2026-04-20 20:58 | 40.32007 | -88.79085 | 28138 ft | 356 kts | 358° |
| 2026-04-20 20:58 | 40.34482 | -88.78805 | 27669 ft | 358 kts | 359° |
| 2026-04-20 20:58 | 40.36975 | -88.78521 | 27198 ft | 360 kts | 359° |
| 2026-04-20 20:59 | 40.39484 | -88.78235 | 26715 ft | 362 kts | 359° |
| 2026-04-20 20:59 | 40.41998 | -88.77948 | 26245 ft | 364 kts | 359° |
| 2026-04-20 20:59 | 40.44527 | -88.77660 | 25760 ft | 366 kts | 359° |
| 2026-04-20 20:59 | 40.47066 | -88.77371 | 25295 ft | 367 kts | 359° |
| 2026-04-20 21:00 | 40.49621 | -88.77079 | 24793 ft | 369 kts | 359° |
| 2026-04-20 21:00 | 40.52180 | -88.76786 | 24303 ft | 370 kts | 359° |
| 2026-04-20 21:00 | 40.54750 | -88.76493 | 23803 ft | 371 kts | 359° |
| 2026-04-20 21:00 | 40.57318 | -88.76199 | 23275 ft | 371 kts | 359° |
| 2026-04-20 21:01 | 40.59850 | -88.75907 | 22793 ft | 369 kts | 359° |
| 2026-04-20 21:01 | 40.62444 | -88.75611 | 22282 ft | 369 kts | 359° |
| 2026-04-20 21:01 | 40.64994 | -88.75319 | 21792 ft | 368 kts | 359° |
| 2026-04-20 21:01 | 40.67543 | -88.75026 | 21313 ft | 367 kts | 359° |
| 2026-04-20 21:02 | 40.70053 | -88.74738 | 20842 ft | 367 kts | 359° |
| 2026-04-20 21:02 | 40.72593 | -88.74446 | 20358 ft | 367 kts | 359° |
| 2026-04-20 21:02 | 40.75133 | -88.74155 | 19873 ft | 366 kts | 359° |
| 2026-04-20 21:02 | 40.77672 | -88.73863 | 19395 ft | 366 kts | 359° |
| 2026-04-20 21:03 | 40.80214 | -88.73570 | 18895 ft | 366 kts | 359° |
| 2026-04-20 21:03 | 40.82758 | -88.73268 | 18371 ft | 366 kts | 359° |
| 2026-04-20 21:03 | 40.85260 | -88.72911 | 17886 ft | 358 kts | 1° |
| 2026-04-20 21:03 | 40.87698 | -88.72516 | 17417 ft | 349 kts | 1° |
| 2026-04-20 21:04 | 40.90089 | -88.72152 | 16881 ft | 343 kts | 0° |
| 2026-04-20 21:04 | 40.92457 | -88.71816 | 16233 ft | 338 kts | 0° |
| 2026-04-20 21:04 | 40.94761 | -88.71475 | 15760 ft | 329 kts | 0° |
| 2026-04-20 21:04 | 40.97010 | -88.71133 | 15328 ft | 321 kts | 0° |
| 2026-04-20 21:05 | 40.99206 | -88.70807 | 14913 ft | 314 kts | 360° |
| 2026-04-20 21:05 | 41.01359 | -88.70489 | 14506 ft | 309 kts | 360° |
| 2026-04-20 21:05 | 41.03480 | -88.70173 | 14101 ft | 305 kts | 360° |
| 2026-04-20 21:05 | 41.05580 | -88.69859 | 13664 ft | 301 kts | 360° |
| 2026-04-20 21:06 | 41.07648 | -88.69551 | 13268 ft | 298 kts | 360° |
| 2026-04-20 21:06 | 41.09702 | -88.69243 | 12876 ft | 297 kts | 360° |
| 2026-04-20 21:06 | 41.11756 | -88.68939 | 12484 ft | 297 kts | 0° |
| 2026-04-20 21:06 | 41.13818 | -88.68630 | 12097 ft | 298 kts | 0° |
| 2026-04-20 21:07 | 41.15879 | -88.68321 | 11697 ft | 299 kts | 0° |
| 2026-04-20 21:07 | 41.17930 | -88.68011 | 11302 ft | 293 kts | 0° |
| 2026-04-20 21:07 | 41.19905 | -88.67711 | 10924 ft | 286 kts | 0° |
| 2026-04-20 21:07 | 41.21866 | -88.67419 | 10562 ft | 281 kts | 0° |
| 2026-04-20 21:08 | 41.23791 | -88.67133 | 10198 ft | 276 kts | 0° |
| 2026-04-20 21:08 | 41.25696 | -88.66846 | 9806 ft | 276 kts | 0° |
| 2026-04-20 21:08 | 41.27620 | -88.66560 | 9436 ft | 280 kts | 1° |
| 2026-04-20 21:08 | 41.29565 | -88.66268 | 9054 ft | 283 kts | 1° |
| 2026-04-20 21:09 | 41.31515 | -88.65973 | 8680 ft | 280 kts | 1° |
| 2026-04-20 21:09 | 41.33436 | -88.65680 | 8317 ft | 275 kts | 1° |
| 2026-04-20 21:09 | 41.35306 | -88.65399 | 7966 ft | 266 kts | 1° |
| 2026-04-20 21:09 | 41.37117 | -88.65125 | 7615 ft | 258 kts | 1° |
| 2026-04-20 21:10 | 41.38888 | -88.64860 | 7277 ft | 255 kts | 1° |
| 2026-04-20 21:10 | 41.40664 | -88.64596 | 6935 ft | 259 kts | 1° |
| 2026-04-20 21:10 | 41.42466 | -88.64324 | 6585 ft | 262 kts | 1° |
| 2026-04-20 21:10 | 41.44285 | -88.64048 | 6223 ft | 264 kts | 2° |
| 2026-04-20 21:11 | 41.46120 | -88.63770 | 5871 ft | 267 kts | 3° |
| 2026-04-20 21:11 | 41.47973 | -88.63491 | 5510 ft | 269 kts | 4° |
| 2026-04-20 21:11 | 41.49826 | -88.63211 | 5149 ft | 267 kts | 4° |
| 2026-04-20 21:11 | 41.51660 | -88.62932 | 4792 ft | 265 kts | 5° |
| 2026-04-20 21:12 | 41.53494 | -88.62653 | 4442 ft | 265 kts | 5° |
| 2026-04-20 21:12 | 41.55344 | -88.62373 | 4080 ft | 270 kts | 5° |
| 2026-04-20 21:12 | 41.57199 | -88.62092 | 3719 ft | 267 kts | 6° |
| 2026-04-20 21:12 | 41.59023 | -88.61815 | 3374 ft | 262 kts | 6° |
| 2026-04-20 21:13 | 41.60795 | -88.61478 | 3043 ft | 251 kts | 14° |
| 2026-04-20 21:13 | 41.62350 | -88.60551 | 2983 ft | 241 kts | 31° |
| 2026-04-20 21:13 | 41.63768 | -88.59343 | 2981 ft | 245 kts | 35° |
| 2026-04-20 21:13 | 41.65176 | -88.58058 | 2983 ft | 239 kts | 35° |
| 2026-04-20 21:14 | 41.66492 | -88.56895 | 2972 ft | 216 kts | 34° |
| 2026-04-20 21:14 | 41.67695 | -88.55869 | 2983 ft | 196 kts | 34° |
| 2026-04-20 21:14 | 41.68817 | -88.54901 | 2979 ft | 189 kts | 35° |
| 2026-04-20 21:14 | 41.69905 | -88.53944 | 2970 ft | 182 kts | 34° |
| 2026-04-20 21:15 | 41.70961 | -88.53019 | 2968 ft | 181 kts | 35° |
| 2026-04-20 21:15 | 41.72039 | -88.52050 | 2990 ft | 194 kts | 39° |
| 2026-04-20 21:15 | 41.72957 | -88.50789 | 3072 ft | 185 kts | 60° |
| 2026-04-20 21:15 | 41.73349 | -88.49216 | 3001 ft | 174 kts | 87° |
| 2026-04-20 21:16 | 41.73470 | -88.47606 | 2860 ft | 176 kts | 88° |
| 2026-04-20 21:16 | 41.73568 | -88.45955 | 2700 ft | 174 kts | 90° |
| 2026-04-20 21:16 | 41.73618 | -88.44421 | 2578 ft | 159 kts | 92° |
| 2026-04-20 21:16 | 41.73683 | -88.42995 | 2426 ft | 152 kts | 80° |
| 2026-04-20 21:17 | 41.74300 | -88.41872 | 2189 ft | 153 kts | 31° |
| 2026-04-20 21:17 | 41.75323 | -88.41595 | 1828 ft | 152 kts | 356° |
| 2026-04-20 21:17 | 41.76334 | -88.41855 | 1633 ft | 144 kts | 335° |
| 2026-04-20 21:17 | 41.77014 | -88.42698 | 1521 ft | 130 kts | 293° |
| 2026-04-20 21:18 | 41.77114 | -88.43839 | 1283 ft | 123 kts | 259° |
| 2026-04-20 21:18 | 41.77066 | -88.44967 | 999 ft | 121 kts | 264° |
| 2026-04-20 21:18 | 41.77046 | -88.46068 | 752 ft | 116 kts | 265° |
| 2026-04-20 21:18 | 41.77047 | -88.47006 | 704 ft | 65 kts | 251° |
| 2026-04-20 21:19 | 41.76998 | -88.47162 | 705 ft | 13 kts | 182° |
| 2026-04-20 21:19 | 41.76922 | -88.47102 | 701 ft | 15 kts | 95° |
| 2026-04-20 21:19 | 41.76912 | -88.46961 | 703 ft | 17 kts | 122° |
| 2026-04-20 21:20 | 41.76771 | -88.46914 | 699 ft | 0 kts | 179° |